Terminal Aerodrome Forecast
Issued by NWS Charleston, SC

Home | Current Version | Previous Version | Text Only | Print | Product List | Glossary On
Versions: 1 2 3 4 5 6 7 8 9 10 11 12 13 14 15 16 17 18 19 20 21 22 23 24 25 26 27 28
012
FTUS42 KCHS 221720
TAFCHS
TAF
KCHS 221720Z 2218/2318 17006KT P6SM FEW040
     FM230900 00000KT 4SM BR SCT010 BKN030
     FM231500 14005KT P6SM FEW035=

USA.gov is the U.S. government's official web portal to all federal, state and local government web resources and services.